Time;durP1;ratioP1;P1;durP2;ratioP2;P2;SDS_P1;SDS_P2;PMS_P1;PMS_P2;Temp;Humidity;BMP_temperature;BMP_pressure;BME280_temperature;BME280_humidity;BME280_pressure;Samples;Min_cycle;Max_cycle;Signal;HPM_P1;HPM_P2
2023/05/21 00:01:15;;;;;;;36.65;20.23;;;;;;;14.23;80.83;101824.22;4975082;28;20059;-44
2023/05/21 00:03:44;;;;;;;43.20;20.38;;;;;;;14.22;80.91;101826.19;4978413;28;20394;-44
2023/05/21 00:06:15;;;;;;;34.20;19.42;;;;;;;14.20;81.12;101825.72;4976205;28;20481;-45
2023/05/21 00:08:42;;;;;;;34.60;20.33;;;;;;;14.21;81.09;101820.97;4975440;28;20058;-45
2023/05/21 00:11:09;;;;;;;40.22;18.70;;;;;;;14.21;81.17;101820.97;4975696;28;20565;-45
2023/05/21 00:13:37;;;;;;;37.50;19.63;;;;;;;14.21;81.18;101826.56;4976037;28;20113;-44
2023/05/21 00:16:04;;;;;;;36.28;19.73;;;;;;;14.17;81.26;101820.03;4976014;28;20054;-44
2023/05/21 00:18:33;;;;;;;38.00;19.73;;;;;;;14.18;81.40;101822.47;4974955;28;20042;-46
2023/05/21 00:21:00;;;;;;;35.25;20.52;;;;;;;14.17;81.35;101820.03;4975281;28;20481;-44
2023/05/21 00:23:27;;;;;;;37.05;19.38;;;;;;;14.18;81.53;101818.88;4975923;28;20039;-43
2023/05/21 00:25:55;;;;;;;38.08;20.20;;;;;;;14.18;81.56;101825.28;4975921;28;20034;-45
2023/05/21 00:28:21;;;;;;;44.15;20.20;;;;;;;14.14;81.39;101813.16;4975518;28;20047;-47
2023/05/21 00:30:48;;;;;;;36.22;19.90;;;;;;;14.12;81.55;101806.31;4975278;28;20054;-48
2023/05/21 00:33:15;;;;;;;36.63;19.60;;;;;;;14.12;81.66;101806.31;4976018;28;20051;-44
2023/05/21 00:35:42;;;;;;;32.83;18.70;;;;;;;14.13;81.58;101805.16;4957758;28;20516;-44
2023/05/21 00:38:09;;;;;;;38.03;19.58;;;;;;;14.08;81.57;101805.41;4975796;28;20042;-44
2023/05/21 00:40:35;;;;;;;38.55;19.77;;;;;;;14.04;81.58;101800.50;4974161;28;20528;-49
2023/05/21 00:43:02;;;;;;;38.95;20.08;;;;;;;13.99;81.77;101797.94;4975854;28;20054;-44
2023/05/21 00:45:29;;;;;;;37.33;19.55;;;;;;;13.98;82.05;101801.03;4975770;28;20058;-49
2023/05/21 00:47:56;;;;;;;38.90;19.80;;;;;;;13.96;82.01;101781.91;4975842;28;20408;-45
2023/05/21 00:50:23;;;;;;;34.08;20.13;;;;;;;13.99;81.90;101785.97;4975059;28;20054;-48
2023/05/21 00:52:50;;;;;;;35.55;21.10;;;;;;;13.95;82.08;101782.28;4963287;28;20050;-44
2023/05/21 00:55:17;;;;;;;39.22;20.33;;;;;;;13.90;82.18;101791.63;4975714;28;20050;-44
2023/05/21 00:57:44;;;;;;;40.63;21.67;;;;;;;13.89;82.28;101794.75;4975599;28;20551;-44
2023/05/21 01:00:13;;;;;;;34.25;18.27;;;;;;;13.88;82.37;101790.34;4975176;28;20043;-44
2023/05/21 01:02:40;;;;;;;33.38;18.08;;;;;;;13.90;82.19;101791.63;4975488;28;20125;-46
2023/05/21 01:05:09;;;;;;;33.97;20.55;;;;;;;13.90;82.21;101794.41;4975886;28;20050;-44
2023/05/21 01:07:40;;;;;;;33.88;19.17;;;;;;;13.87;82.48;101783.16;4975645;28;20049;-44
2023/05/21 01:10:09;;;;;;;33.78;19.33;;;;;;;13.85;82.60;101775.13;4970490;28;20074;-47
2023/05/21 01:12:39;;;;;;;30.77;18.23;;;;;;;13.84;82.37;101781.06;4972719;28;20353;-50
2023/05/21 01:15:07;;;;;;;35.00;20.67;;;;;;;13.80;82.62;101780.91;4972632;28;20051;-45
2023/05/21 01:17:34;;;;;;;40.85;19.00;;;;;;;13.77;82.82;101772.44;4972354;28;20039;-46
2023/05/21 01:20:08;;;;;;;34.47;20.50;;;;;;;13.77;83.04;101772.44;4971418;28;20038;-44
2023/05/21 01:22:40;;;;;;;38.35;19.30;;;;;;;13.74;83.09;101764.78;4960475;28;20050;-44
2023/05/21 01:25:08;;;;;;;49.30;20.58;;;;;;;13.70;83.30;101761.88;4971827;28;20047;-45
2023/05/21 01:27:35;;;;;;;47.20;23.40;;;;;;;13.68;83.26;101760.59;4938884;28;20109;-44
2023/05/21 01:30:02;;;;;;;38.70;19.90;;;;;;;13.67;83.30;101765.31;4970449;28;20058;-47
2023/05/21 01:32:48;;;;;;;50.13;21.65;;;;;;;13.68;83.38;101769.75;4972195;28;20059;-44
2023/05/21 01:35:25;;;;;;;41.10;20.98;;;;;;;13.68;83.59;101766.97;4964567;28;20074;-44
2023/05/21 01:38:04;;;;;;;37.13;20.80;;;;;;;13.66;83.74;101762.91;4972387;28;20051;-44
2023/05/21 01:40:53;;;;;;;38.15;21.02;;;;;;;13.64;83.66;101752.09;4970504;28;20101;-47
2023/05/21 01:43:22;;;;;;;38.15;20.92;;;;;;;13.64;83.66;101754.88;4971334;28;20046;-44
2023/05/21 01:45:53;;;;;;;38.85;22.38;;;;;;;13.64;83.67;101760.44;4971747;28;20145;-44
2023/05/21 01:48:23;;;;;;;39.13;21.17;;;;;;;13.62;83.80;101759.97;4972114;28;20050;-44
2023/05/21 01:50:51;;;;;;;37.47;20.48;;;;;;;13.59;83.80;101759.84;4971647;28;20074;-44
2023/05/21 01:53:18;;;;;;;39.80;20.80;;;;;;;13.58;83.85;101756.22;4971498;28;20046;-47
2023/05/21 01:55:45;;;;;;;43.13;23.10;;;;;;;13.59;83.92;101757.88;4971534;28;20073;-44
2023/05/21 01:58:14;;;;;;;44.13;22.35;;;;;;;13.55;83.79;101762.50;4971771;28;20102;-48
2023/05/21 02:00:41;;;;;;;41.17;22.13;;;;;;;13.52;83.95;101765.97;4957435;28;20074;-47
2023/05/21 02:03:08;;;;;;;35.58;20.83;;;;;;;13.49;84.28;101749.13;4971788;28;20043;-45
2023/05/21 02:05:35;;;;;;;37.95;21.77;;;;;;;13.46;84.23;101761.75;4971389;28;20058;-47
2023/05/21 02:08:02;;;;;;;41.40;22.60;;;;;;;13.43;84.49;101745.72;4971536;28;20105;-44
2023/05/21 02:10:29;;;;;;;38.60;22.85;;;;;;;13.44;84.29;101752.94;4970556;28;20051;-44
2023/05/21 02:12:56;;;;;;;36.50;21.27;;;;;;;13.43;84.50;101756.88;4971486;28;20543;-46
2023/05/21 02:15:23;;;;;;;44.75;21.75;;;;;;;13.41;84.68;101753.63;4971775;28;20054;-51
2023/05/21 02:17:50;;;;;;;48.33;22.45;;;;;;;13.39;84.64;101758.72;4953954;28;20074;-44
2023/05/21 02:20:17;;;;;;;48.75;25.33;;;;;;;13.38;84.81;101759.84;4968195;28;20050;-44
2023/05/21 02:22:46;;;;;;;32.50;20.58;;;;;;;13.37;85.01;101752.66;4970494;28;20053;-44
2023/05/21 02:25:15;;;;;;;33.00;20.35;;;;;;;13.38;84.90;101755.09;4969022;28;20055;-49
2023/05/21 02:27:43;;;;;;;47.92;21.83;;;;;;;13.39;84.78;101755.94;4968626;28;20057;-44
2023/05/21 02:30:11;;;;;;;45.17;22.13;;;;;;;13.40;84.89;101757.53;4973466;28;20078;-44
2023/05/21 02:32:41;;;;;;;32.25;20.13;;;;;;;13.37;84.62;101767.38;4978133;28;20077;-44
2023/05/21 02:35:10;;;;;;;41.65;22.75;;;;;;;13.34;84.81;101767.25;4963993;28;20508;-46
2023/05/21 02:37:39;;;;;;;38.90;20.75;;;;;;;13.28;84.90;101754.69;4970787;28;20485;-44
2023/05/21 02:40:08;;;;;;;37.03;20.58;;;;;;;13.24;84.94;101756.50;4970091;28;20388;-46
2023/05/21 02:42:38;;;;;;;40.42;21.73;;;;;;;13.22;85.01;101756.88;4970726;28;20081;-44
2023/05/21 02:45:10;;;;;;;32.85;19.85;;;;;;;13.18;85.21;101761.50;4957669;28;20046;-44
2023/05/21 02:47:37;;;;;;;34.55;20.23;;;;;;;13.14;85.07;101754.13;4970595;28;20074;-45
2023/05/21 02:50:06;;;;;;;35.90;20.10;;;;;;;13.11;85.11;101761.19;4959079;28;20564;-47
2023/05/21 02:52:33;;;;;;;36.47;20.73;;;;;;;13.08;85.24;101761.06;4965306;28;20082;-45
2023/05/21 02:55:00;;;;;;;41.08;23.15;;;;;;;13.05;85.24;101756.16;4970374;28;20568;-44
2023/05/21 02:57:27;;;;;;;37.58;20.75;;;;;;;13.03;85.33;101756.47;4970853;28;20145;-44
2023/05/21 02:59:53;;;;;;;45.83;23.83;;;;;;;13.03;85.29;101752.88;4969381;28;20051;-45
2023/05/21 03:02:21;;;;;;;43.65;21.98;;;;;;;13.00;85.41;101748.81;5021177;22;20459;-48
2023/05/21 03:04:50;;;;;;;39.28;21.33;;;;;;;13.00;85.50;101742.44;4990290;28;20111;-50
2023/05/21 03:07:18;;;;;;;36.80;20.65;;;;;;;13.00;85.71;101748.81;4988833;28;20078;-44
2023/05/21 03:09:46;;;;;;;39.78;20.38;;;;;;;13.01;85.67;101739.31;4970732;28;20105;-45
2023/05/21 03:12:13;;;;;;;38.22;20.80;;;;;;;13.01;85.58;101744.06;4987045;28;20058;-47
2023/05/21 03:14:45;;;;;;;41.03;21.33;;;;;;;13.02;85.78;101745.69;4986832;28;20046;-44
2023/05/21 03:17:15;;;;;;;41.47;20.95;;;;;;;13.01;85.72;101744.06;4988201;28;20377;-45
2023/05/21 03:19:43;;;;;;;37.75;21.67;;;;;;;13.03;85.95;101741.75;4988209;28;20595;-47
2023/05/21 03:22:10;;;;;;;37.97;21.33;;;;;;;13.04;85.87;101743.38;4989672;28;20392;-44
2023/05/21 03:24:38;;;;;;;40.58;20.02;;;;;;;13.06;85.80;101741.91;4988666;28;20451;-44
2023/05/21 03:27:05;;;;;;;43.08;21.92;;;;;;;13.07;85.83;101740.78;4987549;28;20045;-43
2023/05/21 03:29:33;;;;;;;41.50;20.63;;;;;;;13.07;85.97;101732.44;4973795;28;20409;-44
2023/05/21 03:32:01;;;;;;;43.03;22.98;;;;;;;13.06;86.30;101732.75;4987122;28;20053;-46
2023/05/21 03:34:27;;;;;;;50.97;25.10;;;;;;;13.06;86.23;101741.09;4988672;28;20046;-44
2023/05/21 03:36:54;;;;;;;47.47;24.42;;;;;;;13.04;86.08;101735.06;4988726;28;20073;-46
2023/05/21 03:39:21;;;;;;;43.95;23.00;;;;;;;13.01;86.26;101744.06;4988241;28;20046;-44
2023/05/21 03:41:48;;;;;;;40.75;22.65;;;;;;;13.00;86.42;101742.44;4969919;28;20042;-44
2023/05/21 03:44:15;;;;;;;44.75;23.88;;;;;;;12.95;86.68;101745.41;4987869;28;20447;-44
2023/05/21 03:46:43;;;;;;;48.30;23.45;;;;;;;12.90;86.71;101738.09;4987629;28;20439;-43
2023/05/21 03:49:10;;;;;;;44.67;23.20;;;;;;;12.86;87.01;101753.00;4987013;28;20057;-44
2023/05/21 03:51:38;;;;;;;49.22;25.23;;;;;;;12.83;87.32;101746.97;4987114;28;20392;-49
2023/05/21 03:54:05;;;;;;;40.70;22.92;;;;;;;12.82;87.37;101737.00;4988594;28;20049;-44
2023/05/21 03:56:32;;;;;;;50.55;26.90;;;;;;;12.83;87.57;101748.94;4970318;28;20049;-44
2023/05/21 03:58:59;;;;;;;53.78;28.58;;;;;;;12.80;87.53;101739.28;4987863;28;20052;-50
2023/05/21 04:01:27;;;;;;;56.92;26.52;;;;;;;12.80;87.54;101742.06;4992104;28;20042;-45
2023/05/21 04:03:54;;;;;;;48.95;26.90;;;;;;;12.83;87.70;101744.19;4989114;28;20054;-44
2023/05/21 04:06:21;;;;;;;57.35;28.20;;;;;;;12.83;87.81;101738.63;4984163;28;20532;-45
2023/05/21 04:08:48;;;;;;;51.15;27.73;;;;;;;12.85;87.80;101735.50;4988988;28;20042;-43
2023/05/21 04:11:15;;;;;;;49.35;25.27;;;;;;;12.84;87.84;101733.88;4988299;28;20133;-44
2023/05/21 04:13:42;;;;;;;61.63;28.35;;;;;;;12.86;88.08;101730.75;4989327;28;20353;-49
2023/05/21 04:16:09;;;;;;;55.08;26.73;;;;;;;12.88;88.25;101723.72;4969342;28;20054;-43
2023/05/21 04:18:38;;;;;;;45.22;23.55;;;;;;;12.92;88.07;101737.75;4987557;28;20050;-44
2023/05/21 04:21:05;;;;;;;46.65;25.30;;;;;;;12.94;88.08;101727.94;4987597;28;20146;-43
2023/05/21 04:23:32;;;;;;;54.22;27.27;;;;;;;12.93;88.25;101731.03;4987227;28;20046;-44
2023/05/21 04:25:59;;;;;;;44.45;25.55;;;;;;;12.90;88.05;101715.84;4987984;28;20050;-45
2023/05/21 04:28:28;;;;;;;57.17;28.60;;;;;;;12.90;88.15;101723.38;4986599;28;20061;-45
2023/05/21 04:30:55;;;;;;;53.20;28.95;;;;;;;12.89;88.38;101725.34;4982627;28;20050;-45
2023/05/21 04:33:23;;;;;;;52.38;26.45;;;;;;;12.90;88.49;101723.38;4985967;28;20042;-48
2023/05/21 04:35:50;;;;;;;55.80;28.17;;;;;;;12.88;88.47;101720.13;4984975;28;20455;-43
2023/05/21 04:38:18;;;;;;;64.45;32.83;;;;;;;12.90;88.88;101717.81;4987887;28;20377;-44
2023/05/21 04:40:49;;;;;;;55.80;27.23;;;;;;;12.89;88.81;101730.91;4986852;28;20161;-45
2023/05/21 04:43:16;;;;;;;60.17;27.47;;;;;;;12.91;88.85;101728.59;4986598;28;20069;-43
2023/05/21 04:45:43;;;;;;;62.17;29.25;;;;;;;12.94;89.14;101732.66;4989675;28;20570;-44
2023/05/21 04:48:11;;;;;;;57.60;29.33;;;;;;;12.98;89.06;101728.06;4990566;28;20038;-44
2023/05/21 04:50:40;;;;;;;51.15;28.40;;;;;;;13.00;89.18;101723.00;4990912;28;20496;-43
2023/05/21 04:53:07;;;;;;;51.47;27.42;;;;;;;13.03;89.31;101725.06;4991381;28;20062;-44
2023/05/21 04:55:38;;;;;;;55.28;27.85;;;;;;;13.04;89.40;101723.94;4990392;28;20065;-44
2023/05/21 04:58:11;;;;;;;50.90;27.30;;;;;;;13.07;89.46;101720.50;4990952;28;20042;-43
2023/05/21 05:00:40;;;;;;;54.15;26.45;;;;;;;13.11;89.38;101716.72;4982270;28;20292;-44
2023/05/21 05:03:07;;;;;;;51.75;27.65;;;;;;;13.16;89.48;101708.16;4968727;28;20035;-46
2023/05/21 05:05:35;;;;;;;48.25;26.48;;;;;;;13.21;89.40;101699.59;4991737;28;20496;-50
2023/05/21 05:08:02;;;;;;;51.03;26.35;;;;;;;13.25;89.06;101706.13;4991416;28;20046;-44
2023/05/21 05:10:29;;;;;;;60.45;30.50;;;;;;;13.28;89.21;101712.97;4989775;28;20105;-44
2023/05/21 05:12:56;;;;;;;54.70;26.95;;;;;;;13.29;89.47;101714.63;4981919;28;20604;-44
2023/05/21 05:15:23;;;;;;;49.90;27.02;;;;;;;13.32;89.64;101713.91;4991437;28;20500;-44
2023/05/21 05:17:51;;;;;;;54.35;28.85;;;;;;;13.35;89.65;101708.50;4980800;28;20385;-44
2023/05/21 05:20:17;;;;;;;53.50;30.45;;;;;;;13.38;89.75;101707.00;4989366;28;20054;-44
2023/05/21 05:22:44;;;;;;;62.63;28.02;;;;;;;13.41;89.67;101701.59;4990068;28;20567;-44
2023/05/21 05:25:11;;;;;;;52.45;26.05;;;;;;;13.45;89.75;101700.91;4990345;28;20123;-47
2023/05/21 05:27:38;;;;;;;50.97;26.63;;;;;;;13.50;89.49;101707.06;4989391;28;20046;-46
2023/05/21 05:30:06;;;;;;;56.53;29.70;;;;;;;13.56;89.52;101708.47;4987619;28;20047;-45
2023/05/21 05:32:35;;;;;;;54.95;28.05;;;;;;;13.60;89.29;101717.78;4995449;28;20411;-44
2023/05/21 05:35:02;;;;;;;51.85;28.25;;;;;;;13.62;89.18;101717.41;4987454;28;20053;-44
2023/05/21 05:37:29;;;;;;;57.83;28.30;;;;;;;13.64;89.07;101717.88;5002193;28;20504;-51
2023/05/21 05:39:56;;;;;;;60.25;28.77;;;;;;;13.65;89.25;101725.91;4989587;28;20038;-44
2023/05/21 05:42:23;;;;;;;49.60;26.58;;;;;;;13.68;88.98;101725.22;4974371;28;20447;-44
2023/05/21 05:44:50;;;;;;;53.55;26.67;;;;;;;13.73;89.16;101726.97;4974098;28;20444;-44
2023/05/21 05:47:17;;;;;;;48.03;27.00;;;;;;;13.71;88.94;101727.31;4992640;28;20436;-44
2023/05/21 05:49:43;;;;;;;53.15;28.15;;;;;;;13.72;89.02;101720.59;4993990;28;20046;-46
2023/05/21 05:52:10;;;;;;;54.03;27.48;;;;;;;13.72;89.07;101717.81;4990560;28;20053;-44
2023/05/21 05:54:37;;;;;;;60.70;26.70;;;;;;;13.76;88.95;101715.97;4991366;28;20054;-46
2023/05/21 05:57:04;;;;;;;54.42;27.55;;;;;;;13.75;88.95;101717.13;4973527;28;20042;-44
2023/05/21 05:59:32;;;;;;;54.70;26.02;;;;;;;13.76;89.19;101720.72;4988477;28;20049;-44
2023/05/21 06:02:00;;;;;;;45.28;25.58;;;;;;;13.78;89.02;101724.78;4989599;28;20413;-44
2023/05/21 06:04:28;;;;;;;45.38;24.05;;;;;;;13.81;88.91;101724.09;4988172;28;20038;-51
2023/05/21 06:06:59;;;;;;;52.13;27.05;;;;;;;13.82;89.20;101730.50;4988721;28;20051;-44
2023/05/21 06:09:26;;;;;;;48.83;25.90;;;;;;;13.83;89.02;101732.09;4988620;28;20053;-45
2023/05/21 06:11:53;;;;;;;44.35;23.42;;;;;;;13.86;88.86;101732.25;4987736;28;20498;-44
2023/05/21 06:14:19;;;;;;;40.22;22.02;;;;;;;13.90;88.78;101741.50;4987133;28;20459;-45
2023/05/21 06:16:46;;;;;;;44.72;22.77;;;;;;;13.95;88.47;101732.16;4987775;28;20054;-44
2023/05/21 06:19:13;;;;;;;41.45;22.88;;;;;;;13.98;88.63;101737.81;4988458;28;20042;-44
2023/05/21 06:21:40;;;;;;;45.22;25.05;;;;;;;14.02;88.54;101744.34;4989540;28;20045;-44
2023/05/21 06:24:07;;;;;;;49.10;25.35;;;;;;;14.06;88.54;101746.44;4990524;28;20411;-43
2023/05/21 06:26:33;;;;;;;45.40;23.38;;;;;;;14.09;88.44;101742.94;4989414;28;20104;-44
2023/05/21 06:29:02;;;;;;;51.90;24.42;;;;;;;14.13;88.29;101735.56;4987494;28;20065;-45
2023/05/21 06:31:31;;;;;;;50.10;23.98;;;;;;;14.15;88.22;101744.38;4986225;28;20391;-45
2023/05/21 06:33:59;;;;;;;45.78;23.88;;;;;;;14.16;88.35;101746.00;4988526;28;20046;-44
2023/05/21 06:36:28;;;;;;;49.17;25.95;;;;;;;14.18;88.42;101750.06;4986795;28;20051;-45
2023/05/21 06:38:55;;;;;;;48.08;24.02;;;;;;;14.22;88.24;101750.16;4987473;28;20412;-43
2023/05/21 06:41:23;;;;;;;50.00;24.25;;;;;;;14.27;88.20;101749.97;4988137;28;20140;-44
2023/05/21 06:43:50;;;;;;;44.03;23.05;;;;;;;14.31;88.14;101753.69;4989157;28;20073;-44
2023/05/21 06:46:17;;;;;;;43.45;25.02;;;;;;;14.35;87.90;101754.66;4989348;28;20050;-46
2023/05/21 06:48:45;;;;;;;46.53;25.10;;;;;;;14.39;87.74;101755.59;4965979;28;20069;-48
2023/05/21 06:51:13;;;;;;;48.85;23.77;;;;;;;14.47;87.71;101763.03;4990937;28;20357;-43
2023/05/21 06:53:40;;;;;;;43.40;23.25;;;;;;;14.54;87.49;101757.69;4989842;28;20053;-45
2023/05/21 06:56:07;;;;;;;44.63;22.50;;;;;;;14.60;87.30;101770.22;4999080;28;20050;-43
2023/05/21 06:58:34;;;;;;;45.55;24.33;;;;;;;14.66;87.02;101774.44;4989211;28;20042;-44
2023/05/21 07:01:01;;;;;;;43.30;25.30;;;;;;;14.69;86.99;101759.78;4988663;28;20070;-44
2023/05/21 07:03:28;;;;;;;41.90;22.90;;;;;;;14.75;86.70;101768.72;4990195;28;20062;-44
2023/05/21 07:05:56;;;;;;;46.92;25.45;;;;;;;14.78;86.58;101766.06;4989705;28;20522;-44
2023/05/21 07:08:23;;;;;;;49.58;25.40;;;;;;;14.81;86.76;101768.16;4986470;28;20118;-47
2023/05/21 07:10:50;;;;;;;39.00;25.70;;;;;;;14.86;86.89;101765.13;4989366;28;20046;-48
2023/05/21 07:13:17;;;;;;;44.33;23.92;;;;;;;14.91;86.67;101769.63;4989846;28;20491;-44
2023/05/21 07:15:44;;;;;;;41.38;24.08;;;;;;;14.92;86.51;101765.69;4971969;28;20039;-44
2023/05/21 07:18:11;;;;;;;46.00;23.10;;;;;;;14.95;86.37;101771.41;4990028;28;20488;-47
2023/05/21 07:20:38;;;;;;;38.15;21.80;;;;;;;15.00;86.11;101762.78;4989051;28;20084;-45
2023/05/21 07:23:05;;;;;;;43.47;23.35;;;;;;;14.95;85.81;101768.63;4989646;28;20038;-47
2023/05/21 07:25:32;;;;;;;38.50;21.92;;;;;;;14.97;85.77;101768.25;4989134;28;20042;-45
2023/05/21 07:28:00;;;;;;;42.65;21.60;;;;;;;15.03;85.70;101764.88;4989652;28;20077;-46
2023/05/21 07:30:26;;;;;;;46.33;24.35;;;;;;;15.07;85.55;101767.75;4987873;28;20056;-54
2023/05/21 07:32:53;;;;;;;38.70;20.85;;;;;;;15.13;85.57;101772.78;4979261;28;20094;-46
2023/05/21 07:35:20;;;;;;;39.88;21.50;;;;;;;15.21;85.39;101769.03;4985825;28;20502;-45
2023/05/21 07:37:47;;;;;;;35.63;19.75;;;;;;;15.29;85.49;101775.66;4985356;28;20373;-45
2023/05/21 07:40:14;;;;;;;30.45;18.55;;;;;;;15.33;85.16;101778.56;4963633;28;20480;-47
2023/05/21 07:42:41;;;;;;;30.00;17.25;;;;;;;15.38;84.94;101783.88;4984826;28;20423;-45
2023/05/21 07:45:08;;;;;;;27.52;16.23;;;;;;;15.43;84.82;101778.06;4983766;28;20042;-46
2023/05/21 07:47:35;;;;;;;29.75;17.38;;;;;;;15.51;84.37;101777.13;4997760;28;20065;-45
2023/05/21 07:50:02;;;;;;;29.88;16.92;;;;;;;15.56;84.03;101790.84;4988038;28;20053;-46
2023/05/21 07:52:29;;;;;;;37.60;18.42;;;;;;;15.60;83.66;101788.94;4989187;28;20046;-49
2023/05/21 07:54:56;;;;;;;39.85;20.17;;;;;;;15.63;83.50;101791.03;4986244;28;20739;-42
2023/05/21 07:57:26;;;;;;;35.53;19.55;;;;;;;15.66;83.33;101784.75;4993385;28;20046;-42
2023/05/21 07:59:53;;;;;;;35.45;18.85;;;;;;;15.73;83.26;101771.00;4987983;28;20073;-45
2023/05/21 08:02:20;;;;;;;39.63;21.10;;;;;;;15.83;83.21;101776.09;4998398;28;20061;-45
2023/05/21 08:04:47;;;;;;;34.30;19.02;;;;;;;15.99;83.06;101778.94;4972052;28;20034;-43
2023/05/21 08:07:15;;;;;;;38.30;21.95;;;;;;;16.20;82.91;101785.09;4989198;28;20137;-44
2023/05/21 08:09:45;;;;;;;47.15;23.55;;;;;;;16.43;82.75;101784.13;4986790;28;20444;-46
2023/05/21 08:12:15;;;;;;;36.60;20.80;;;;;;;16.57;82.14;101785.69;4984447;28;20047;-43
2023/05/21 08:14:42;;;;;;;34.70;19.40;;;;;;;16.60;81.63;101782.19;4985495;28;20043;-46
2023/05/21 08:17:12;;;;;;;30.30;15.20;;;;;;;16.56;81.27;101798.03;4987407;28;20062;-43
2023/05/21 08:19:40;;;;;;;23.17;11.93;;;;;;;16.52;80.77;101791.53;4971875;28;20846;-45
2023/05/21 08:22:07;;;;;;;23.63;11.02;;;;;;;16.44;80.53;101787.75;4988428;28;20053;-45
2023/05/21 08:24:34;;;;;;;21.75;10.30;;;;;;;16.41;80.07;101794.84;4992942;28;20050;-43
2023/05/21 08:27:01;;;;;;;20.75;9.52;;;;;;;16.42;79.79;101795.66;4989598;28;20038;-43
2023/05/21 08:29:27;;;;;;;40.25;10.63;;;;;;;16.50;79.53;101796.66;4989462;28;20046;-46
2023/05/21 08:31:55;;;;;;;19.42;8.85;;;;;;;16.59;79.33;101802.91;4988785;28;20050;-48
2023/05/21 08:34:22;;;;;;;21.30;10.65;;;;;;;16.68;78.71;101798.75;4991196;28;20093;-46
2023/05/21 08:36:49;;;;;;;17.25;9.60;;;;;;;16.72;78.26;101793.25;4993071;28;20046;-43
2023/05/21 08:39:17;;;;;;;27.35;12.30;;;;;;;16.78;77.99;101792.66;4991267;28;20069;-44
2023/05/21 08:41:48;;;;;;;25.63;11.35;;;;;;;16.87;77.77;101806.41;4987608;28;20042;-44
2023/05/21 08:44:20;;;;;;;26.35;10.13;;;;;;;16.97;77.56;101798.28;4990588;28;20038;-44
2023/05/21 08:46:48;;;;;;;;;;;;;;;16.91;77.64;101799.75;4974942;28;20125;-47
2023/05/21 08:49:17;;;;;;;26.75;10.10;;;;;;;16.86;76.99;101797.25;4988576;28;19977;-43
2023/05/21 08:51:46;;;;;;;22.80;10.80;;;;;;;16.80;76.44;101797.88;4982567;28;20507;-47
2023/05/21 08:54:13;;;;;;;27.77;11.75;;;;;;;16.69;76.23;101803.19;4988301;28;20050;-46
2023/05/21 08:56:45;;;;;;;20.85;11.45;;;;;;;16.57;75.67;101813.66;4987270;28;20086;-45
2023/05/21 08:59:13;;;;;;;25.65;12.27;;;;;;;16.45;75.66;101809.72;4987975;28;20353;-48
2023/05/21 09:01:43;;;;;;;20.13;9.48;;;;;;;16.42;75.25;101801.25;4990986;28;20046;-49
2023/05/21 09:04:13;;;;;;;20.80;10.60;;;;;;;16.35;75.06;101803.84;4991618;28;20761;-47
2023/05/21 09:06:47;;;;;;;18.15;8.75;;;;;;;16.30;74.29;101802.16;4999373;28;20496;-45
2023/05/21 09:09:28;;;;;;;21.23;10.05;;;;;;;16.28;74.53;101807.25;4972187;28;20480;-45
2023/05/21 09:11:55;;;;;;;23.23;9.63;;;;;;;16.29;74.05;101808.06;4989082;28;20065;-45
2023/05/21 09:14:23;;;;;;;19.05;8.55;;;;;;;16.31;73.90;101809.34;4987756;28;20413;-46
2023/05/21 09:16:50;;;;;;;22.05;10.95;;;;;;;16.33;73.69;101801.44;4991971;28;20448;-45
2023/05/21 09:19:21;;;;;;;25.02;12.02;;;;;;;16.34;73.46;101810.59;4985118;28;20408;-45
2023/05/21 09:21:51;;;;;;;28.00;12.57;;;;;;;16.35;73.63;101806.66;4964473;28;20145;-45
2023/05/21 09:24:21;;;;;;;20.00;11.07;;;;;;;16.37;73.73;101810.72;4991067;28;20054;-44
2023/05/21 09:26:51;;;;;;;25.92;12.98;;;;;;;16.39;73.61;101805.56;4980975;28;20045;-45
2023/05/21 09:29:18;;;;;;;23.77;10.80;;;;;;;16.41;73.97;101811.59;4983934;28;20046;-44
2023/05/21 09:31:45;;;;;;;24.38;11.10;;;;;;;16.44;73.51;101808.09;4986698;28;20562;-45
2023/05/21 09:34:15;;;;;;;27.15;10.45;;;;;;;16.41;73.44;101808.81;4982964;28;20108;-45
2023/05/21 09:36:45;;;;;;;25.48;11.95;;;;;;;16.43;73.51;101814.06;4988322;28;20053;-46
2023/05/21 09:39:26;;;;;;;22.92;10.32;;;;;;;16.43;73.51;101806.50;4969290;28;20509;-45
2023/05/21 09:41:56;;;;;;;20.20;8.65;;;;;;;16.44;73.32;101805.31;4985585;28;20397;-45
2023/05/21 09:44:23;;;;;;;20.10;10.73;;;;;;;16.46;73.37;101813.34;4957357;28;20401;-45
2023/05/21 09:46:57;;;;;;;21.27;11.27;;;;;;;16.43;73.41;101808.47;4971013;28;20132;-49
2023/05/21 09:49:25;;;;;;;21.20;12.48;;;;;;;16.42;73.62;101804.03;4988163;28;20042;-45
2023/05/21 09:51:58;;;;;;;18.55;9.32;;;;;;;16.38;73.37;101809.56;4982635;28;20564;-45
2023/05/21 09:54:30;;;;;;;25.98;12.70;;;;;;;16.35;73.51;101804.69;4987507;28;20058;-45
2023/05/21 09:57:00;;;;;;;24.45;10.85;;;;;;;16.31;73.50;101809.34;4989995;28;20092;-51
2023/05/21 09:59:37;;;;;;;23.05;10.90;;;;;;;16.29;73.68;101802.50;4982987;28;20133;-47
2023/05/21 10:02:20;;;;;;;22.13;11.00;;;;;;;16.24;73.55;101806.38;4982813;28;20077;-45
2023/05/21 10:04:49;;;;;;;15.43;9.32;;;;;;;16.20;73.73;101811.03;4982423;28;20035;-51
2023/05/21 10:07:20;;;;;;;16.90;7.85;;;;;;;16.18;73.47;101810.59;4987563;28;20396;-44
2023/05/21 10:09:47;;;;;;;15.88;8.52;;;;;;;16.15;73.62;101816.88;4986057;28;20050;-45
2023/05/21 10:12:17;;;;;;;14.60;8.10;;;;;;;16.14;73.43;101815.28;4980597;28;20484;-45
2023/05/21 10:14:51;;;;;;;20.15;8.82;;;;;;;16.12;73.22;101811.22;4985010;28;20191;-49
2023/05/21 10:17:18;;;;;;;18.90;8.70;;;;;;;16.10;72.94;101803.16;4987772;28;20046;-44
2023/05/21 10:19:47;;;;;;;16.77;6.75;;;;;;;16.12;72.98;101812.03;4987590;28;20042;-48
2023/05/21 10:22:15;;;;;;;19.77;7.45;;;;;;;16.15;73.08;101805.69;4988781;28;20158;-46
2023/05/21 10:24:44;;;;;;;18.45;7.60;;;;;;;16.20;73.30;101813.81;4989806;28;20558;-46
2023/05/21 10:27:12;;;;;;;19.05;8.02;;;;;;;16.21;73.06;101812.66;4987586;28;20042;-45
2023/05/21 10:29:40;;;;;;;18.70;7.95;;;;;;;16.22;73.27;101805.91;4987585;28;20039;-50
2023/05/21 10:32:07;;;;;;;23.60;8.73;;;;;;;16.27;73.43;101802.84;4990683;28;20507;-46
2023/05/21 10:34:37;;;;;;;17.02;8.18;;;;;;;16.34;73.11;101803.03;4985794;28;20089;-50
2023/05/21 10:37:07;;;;;;;20.73;9.00;;;;;;;16.37;73.09;101807.09;4966617;28;20109;-51
2023/05/21 10:39:35;;;;;;;21.70;9.52;;;;;;;16.43;73.34;101800.91;4985613;28;20042;-47
2023/05/21 10:42:14;;;;;;;26.00;11.70;;;;;;;16.54;73.44;101805.97;4985907;28;20046;-46
2023/05/21 10:44:58;;;;;;;20.88;9.88;;;;;;;16.57;73.36;101800.50;4986244;28;20121;-46
2023/05/21 10:48:03;;;;;;;17.70;10.35;;;;;;;16.65;73.25;101793.09;4988579;28;20049;-44
2023/05/21 10:50:49;;;;;;;24.20;12.15;;;;;;;16.82;73.44;101795.50;4988159;28;20039;-45
2023/05/21 10:53:27;;;;;;;17.58;9.73;;;;;;;16.95;73.00;101797.84;4969721;28;20046;-49
2023/05/21 10:56:06;;;;;;;17.58;8.77;;;;;;;17.15;72.95;101793.13;4989627;28;20104;-49
2023/05/21 10:59:11;;;;;;;18.67;9.43;;;;;;;17.31;72.58;101785.50;4988511;28;20046;-45
2023/05/21 11:01:40;;;;;;;16.55;8.95;;;;;;;17.47;72.82;101794.63;4984573;28;20508;-45
2023/05/21 11:04:08;;;;;;;18.73;11.32;;;;;;;17.64;72.66;101776.63;4988794;28;20046;-46
2023/05/21 11:06:35;;;;;;;19.13;10.13;;;;;;;17.80;72.35;101784.97;4988545;28;20050;-47
2023/05/21 11:09:15;;;;;;;18.85;10.32;;;;;;;18.02;72.15;101784.22;4987449;28;20042;-45
2023/05/21 11:11:49;;;;;;;18.10;10.10;;;;;;;18.18;72.12;101784.94;4985664;28;20037;-45
2023/05/21 11:14:30;;;;;;;21.42;10.02;;;;;;;18.34;72.05;101780.03;4955901;28;20088;-53
2023/05/21 11:17:06;;;;;;;18.00;9.38;;;;;;;18.43;71.94;101783.38;4989948;28;20066;-49